Time;durP1;ratioP1;P1;durP2;ratioP2;P2;SDS_P1;SDS_P2;PMS_P1;PMS_P2;Temp;Humidity;BMP_temperature;BMP_pressure;BME280_temperature;BME280_humidity;BME280_pressure;Samples;Min_cycle;Max_cycle;Signal;HPM_P1;HPM_P2
2022/04/24 00:00:45;;;;;;;10.98;8.32;;;;;;;;;;5098692;28;20111;-61
2022/04/24 00:03:11;;;;;;;12.55;8.60;;;;;;;;;;5091863;28;20055;-61
2022/04/24 00:05:37;;;;;;;11.55;8.23;;;;;;;;;;5095968;28;20040;-61
2022/04/24 00:08:04;;;;;;;13.60;9.00;;;;;;;;;;5093096;28;20036;-61
2022/04/24 00:10:30;;;;;;;10.63;8.20;;;;;;;;;;5072769;28;20075;-61
2022/04/24 00:12:56;;;;;;;10.52;7.97;;;;;;;;;;5079487;28;20100;-61
2022/04/24 00:15:22;;;;;;;11.30;7.90;;;;;;;;;;5100076;28;20146;-60
2022/04/24 00:17:48;;;;;;;12.27;8.52;;;;;;;;;;5095478;28;20334;-61
2022/04/24 00:20:14;;;;;;;12.05;8.32;;;;;;;;;;5097583;28;20046;-61
2022/04/24 00:22:40;;;;;;;11.05;7.88;;;;;;;;;;5100424;28;20086;-61
2022/04/24 00:25:06;;;;;;;11.45;8.07;;;;;;;;;;5105362;28;20118;-61
2022/04/24 00:27:33;;;;;;;12.95;7.93;;;;;;;;;;5093813;28;20378;-61
2022/04/24 00:29:59;;;;;;;11.55;8.35;;;;;;;;;;5091481;28;20047;-61
2022/04/24 00:32:25;;;;;;;11.15;8.48;;;;;;;;;;5103247;28;20290;-61
2022/04/24 00:34:51;;;;;;;11.75;8.18;;;;;;;;;;5094136;28;20390;-61
2022/04/24 00:37:16;;;;;;;9.63;7.10;;;;;;;;;;5096320;28;20032;-61
2022/04/24 00:39:42;;;;;;;11.98;7.82;;;;;;;;;;5092741;28;20028;-61
2022/04/24 00:42:09;;;;;;;11.00;8.43;;;;;;;;;;5115741;22;20039;-62
2022/04/24 00:44:35;;;;;;;11.95;8.07;;;;;;;;;;5050931;28;20601;-62
2022/04/24 00:47:03;;;;;;;9.80;7.28;;;;;;;;;;5070943;28;20437;-63
2022/04/24 00:49:30;;;;;;;11.77;8.23;;;;;;;;;;5071046;28;20044;-62
2022/04/24 00:51:56;;;;;;;11.68;8.30;;;;;;;;;;5054975;28;20076;-63
2022/04/24 00:54:22;;;;;;;11.70;8.15;;;;;;;;;;5062016;28;20087;-63
2022/04/24 00:56:48;;;;;;;11.65;7.78;;;;;;;;;;5062429;28;20044;-63
2022/04/24 00:59:15;;;;;;;11.45;8.00;;;;;;;;;;5067569;28;20033;-63
2022/04/24 01:01:42;;;;;;;12.40;7.55;;;;;;;;;;5072514;28;20432;-63
2022/04/24 01:04:09;;;;;;;9.20;7.53;;;;;;;;;;5067830;28;20086;-63
2022/04/24 01:06:45;;;;;;;9.82;7.45;;;;;;;;;;5057776;28;20040;-63
2022/04/24 01:09:17;;;;;;;11.10;7.63;;;;;;;;;;5066314;28;20073;-63
2022/04/24 01:11:44;;;;;;;10.63;7.57;;;;;;;;;;5060731;28;20041;-62
2022/04/24 01:14:10;;;;;;;11.35;8.23;;;;;;;;;;5069001;28;20131;-63
2022/04/24 01:16:36;;;;;;;11.18;7.43;;;;;;;;;;5061621;28;20041;-62
2022/04/24 01:19:03;;;;;;;11.52;7.72;;;;;;;;;;5060676;28;20040;-63
2022/04/24 01:21:29;;;;;;;10.82;7.72;;;;;;;;;;5064082;28;20033;-63
2022/04/24 01:23:55;;;;;;;9.73;7.05;;;;;;;;;;5064348;28;20109;-63
2022/04/24 01:26:21;;;;;;;11.23;7.57;;;;;;;;;;5064728;28;20507;-62
2022/04/24 01:28:47;;;;;;;11.05;7.50;;;;;;;;;;5062998;28;20030;-62
2022/04/24 01:31:13;;;;;;;11.68;7.90;;;;;;;;;;5072269;28;20512;-62
2022/04/24 01:33:39;;;;;;;8.90;7.43;;;;;;;;;;5061846;28;20069;-62
2022/04/24 01:36:05;;;;;;;12.07;7.70;;;;;;;;;;5070161;28;20040;-62
2022/04/24 01:38:31;;;;;;;10.27;7.75;;;;;;;;;;5062497;28;20041;-62
2022/04/24 01:40:57;;;;;;;11.10;7.72;;;;;;;;;;5061540;28;20037;-62
2022/04/24 01:43:23;;;;;;;9.00;6.45;;;;;;;;;;5066848;28;20506;-63
2022/04/24 01:45:49;;;;;;;9.57;7.75;;;;;;;;;;5062486;28;20119;-63
2022/04/24 01:48:15;;;;;;;10.35;7.85;;;;;;;;;;5060226;28;20052;-63
2022/04/24 01:50:41;;;;;;;9.68;7.70;;;;;;;;;;5057229;28;20037;-63
2022/04/24 01:53:07;;;;;;;11.43;7.78;;;;;;;;;;5063578;28;20055;-63
2022/04/24 01:55:33;;;;;;;11.10;7.40;;;;;;;;;;5063363;28;20513;-63
2022/04/24 01:57:59;;;;;;;10.95;8.00;;;;;;;;;;5059710;28;20036;-63
2022/04/24 02:00:25;;;;;;;12.18;7.68;;;;;;;;;;5057802;28;20067;-62
2022/04/24 02:02:52;;;;;;;10.27;7.53;;;;;;;;;;5061538;28;20037;-62
2022/04/24 02:05:18;;;;;;;11.65;7.97;;;;;;;;;;5069127;28;20051;-63
2022/04/24 02:07:44;;;;;;;12.20;7.57;;;;;;;;;;5063411;28;20048;-63
2022/04/24 02:10:10;;;;;;;9.77;7.97;;;;;;;;;;5066825;28;20054;-62
2022/04/24 02:12:40;;;;;;;10.10;7.32;;;;;;;;;;5065259;28;20482;-62
2022/04/24 02:15:06;;;;;;;10.68;7.60;;;;;;;;;;5068864;28;20052;-63
2022/04/24 02:17:32;;;;;;;11.85;7.25;;;;;;;;;;5064503;28;20483;-63
2022/04/24 02:19:58;;;;;;;11.68;7.82;;;;;;;;;;5058263;28;20395;-63
2022/04/24 02:22:24;;;;;;;11.70;7.80;;;;;;;;;;5067671;28;20033;-63
2022/04/24 02:24:52;;;;;;;9.60;7.95;;;;;;;;;;5059033;28;20120;-63
2022/04/24 02:27:18;;;;;;;11.45;8.18;;;;;;;;;;5057417;28;20101;-63
2022/04/24 02:29:44;;;;;;;10.93;8.25;;;;;;;;;;5060630;28;20064;-63
2022/04/24 02:32:10;;;;;;;13.20;8.02;;;;;;;;;;5063658;28;20044;-63
2022/04/24 02:34:36;;;;;;;10.63;7.90;;;;;;;;;;5070049;28;20102;-63
2022/04/24 02:37:02;;;;;;;10.18;7.85;;;;;;;;;;5064431;28;20086;-62
2022/04/24 02:39:28;;;;;;;12.20;6.97;;;;;;;;;;5062172;28;20036;-62
2022/04/24 02:41:54;;;;;;;12.27;7.35;;;;;;;;;;5062694;28;20094;-63
2022/04/24 02:44:20;;;;;;;11.98;7.88;;;;;;;;;;5064255;28;20036;-62
2022/04/24 02:46:46;;;;;;;10.52;8.00;;;;;;;;;;5062654;28;20041;-62
2022/04/24 02:49:12;;;;;;;11.48;7.50;;;;;;;;;;5066459;28;20074;-62
2022/04/24 02:51:38;;;;;;;10.40;7.28;;;;;;;;;;5062167;28;20551;-62
2022/04/24 02:54:05;;;;;;;9.35;7.15;;;;;;;;;;5068748;28;20478;-63
2022/04/24 02:56:30;;;;;;;10.13;7.70;;;;;;;;;;5069029;28;20556;-62
2022/04/24 02:58:56;;;;;;;10.23;7.05;;;;;;;;;;5066502;28;20036;-63
2022/04/24 03:01:22;;;;;;;9.32;6.95;;;;;;;;;;5062699;28;20041;-62
2022/04/24 03:03:49;;;;;;;11.50;7.13;;;;;;;;;;5066880;28;20119;-63
2022/04/24 03:06:17;;;;;;;16.25;6.85;;;;;;;;;;5068424;28;20520;-63
2022/04/24 03:08:42;;;;;;;9.02;6.90;;;;;;;;;;5065679;28;20085;-62
2022/04/24 03:11:08;;;;;;;10.77;7.55;;;;;;;;;;5065961;28;20032;-62
2022/04/24 03:13:34;;;;;;;8.73;6.13;;;;;;;;;;5064843;28;20051;-63
2022/04/24 03:16:00;;;;;;;8.93;6.95;;;;;;;;;;5069828;28;20028;-63
2022/04/24 03:18:26;;;;;;;8.60;7.22;;;;;;;;;;5069477;28;20040;-63
2022/04/24 03:20:52;;;;;;;11.43;6.90;;;;;;;;;;5055103;28;20029;-62
2022/04/24 03:23:18;;;;;;;11.13;6.80;;;;;;;;;;5063071;28;20055;-62
2022/04/24 03:25:45;;;;;;;9.50;6.90;;;;;;;;;;5064851;28;20158;-62
2022/04/24 03:28:11;;;;;;;10.98;6.95;;;;;;;;;;5061946;28;20049;-63
2022/04/24 03:30:37;;;;;;;10.23;6.85;;;;;;;;;;5065652;28;20040;-62
2022/04/24 03:33:03;;;;;;;9.77;7.38;;;;;;;;;;5066352;28;20037;-62
2022/04/24 03:35:29;;;;;;;9.93;7.30;;;;;;;;;;5071499;28;20036;-62
2022/04/24 03:37:55;;;;;;;9.07;6.82;;;;;;;;;;5070818;28;20029;-63
2022/04/24 03:40:21;;;;;;;10.68;7.22;;;;;;;;;;5070187;28;20047;-63
2022/04/24 03:42:47;;;;;;;8.35;6.60;;;;;;;;;;5063605;28;20032;-63
2022/04/24 03:45:13;;;;;;;12.15;6.75;;;;;;;;;;5070166;28;20120;-63
2022/04/24 03:47:40;;;;;;;10.93;7.32;;;;;;;;;;5071783;28;20032;-62
2022/04/24 03:50:06;;;;;;;10.85;7.32;;;;;;;;;;5073493;28;20383;-63
2022/04/24 03:52:32;;;;;;;11.50;6.78;;;;;;;;;;5069159;28;20548;-62
2022/04/24 03:54:58;;;;;;;9.95;6.57;;;;;;;;;;5071430;28;20047;-62
2022/04/24 03:57:24;;;;;;;10.60;7.20;;;;;;;;;;5071243;28;20040;-62
2022/04/24 03:59:51;;;;;;;10.73;7.35;;;;;;;;;;5066374;28;20116;-62
2022/04/24 04:02:17;;;;;;;13.65;8.10;;;;;;;;;;5069899;28;20064;-63
2022/04/24 04:04:43;;;;;;;10.18;7.47;;;;;;;;;;5068735;28;20052;-63
2022/04/24 04:07:09;;;;;;;8.95;7.18;;;;;;;;;;5071534;28;20067;-62
2022/04/24 04:09:35;;;;;;;11.65;7.38;;;;;;;;;;5068430;28;20123;-61
2022/04/24 04:12:01;;;;;;;10.73;7.55;;;;;;;;;;5065681;28;20131;-63
2022/04/24 04:14:27;;;;;;;10.88;7.53;;;;;;;;;;5068781;28;20033;-63
2022/04/24 04:16:53;;;;;;;10.25;7.90;;;;;;;;;;5065307;28;20297;-60
2022/04/24 04:19:19;;;;;;;10.95;7.63;;;;;;;;;;5071710;28;20044;-61
2022/04/24 04:21:45;;;;;;;10.75;7.07;;;;;;;;;;5070695;28;20040;-61
2022/04/24 04:24:12;;;;;;;10.90;8.10;;;;;;;;;;5070853;28;20044;-61
2022/04/24 04:26:38;;;;;;;10.80;7.30;;;;;;;;;;5065848;28;20123;-61
2022/04/24 04:29:04;;;;;;;12.35;7.38;;;;;;;;;;5050813;28;20069;-61
2022/04/24 04:31:30;;;;;;;14.15;8.07;;;;;;;;;;5052640;28;20044;-61
2022/04/24 04:33:56;;;;;;;10.90;8.32;;;;;;;;;;5052242;28;20048;-61
2022/04/24 04:36:22;;;;;;;12.88;8.75;;;;;;;;;;5063608;28;20051;-61
2022/04/24 04:38:48;;;;;;;10.82;7.68;;;;;;;;;;5073043;28;20435;-61
2022/04/24 04:41:15;;;;;;;13.57;7.95;;;;;;;;;;5060803;28;20086;-61
2022/04/24 04:43:40;;;;;;;10.73;7.22;;;;;;;;;;5071443;28;20093;-61
2022/04/24 04:46:06;;;;;;;9.20;7.20;;;;;;;;;;5069575;28;20040;-61
2022/04/24 04:48:33;;;;;;;11.25;7.40;;;;;;;;;;5067440;28;20051;-60
2022/04/24 04:50:59;;;;;;;12.85;8.23;;;;;;;;;;5064134;28;20036;-61
2022/04/24 04:53:25;;;;;;;9.85;7.75;;;;;;;;;;5070234;28;20054;-60
2022/04/24 04:55:51;;;;;;;12.35;8.05;;;;;;;;;;5083277;28;20053;-61
2022/04/24 04:58:17;;;;;;;16.15;8.07;;;;;;;;;;5065553;28;20045;-61
2022/04/24 05:00:43;;;;;;;12.48;7.85;;;;;;;;;;5066311;28;20052;-61
2022/04/24 05:03:09;;;;;;;11.98;8.43;;;;;;;;;;5070181;28;20041;-61
2022/04/24 05:05:35;;;;;;;12.10;8.20;;;;;;;;;;5070016;28;20443;-61
2022/04/24 05:08:02;;;;;;;12.90;8.40;;;;;;;;;;5070089;28;20337;-61
2022/04/24 05:10:28;;;;;;;13.27;8.32;;;;;;;;;;5064840;28;20044;-61
2022/04/24 05:12:54;;;;;;;12.70;8.25;;;;;;;;;;5069328;28;20040;-61
2022/04/24 05:15:21;;;;;;;11.07;7.97;;;;;;;;;;5069042;28;20044;-61
2022/04/24 05:17:48;;;;;;;14.27;7.57;;;;;;;;;;5064466;28;20090;-61
2022/04/24 05:20:14;;;;;;;11.68;8.40;;;;;;;;;;5079011;28;20048;-61
2022/04/24 05:22:41;;;;;;;11.82;7.97;;;;;;;;;;5069547;28;20079;-60
2022/04/24 05:25:09;;;;;;;13.95;8.00;;;;;;;;;;5066787;28;20078;-61
2022/04/24 05:27:36;;;;;;;12.00;7.93;;;;;;;;;;5066642;28;20059;-61
2022/04/24 05:30:05;;;;;;;11.50;7.22;;;;;;;;;;5067630;28;20591;-61
2022/04/24 05:32:37;;;;;;;12.02;7.85;;;;;;;;;;5062139;28;20402;-60
2022/04/24 05:35:03;;;;;;;11.75;8.18;;;;;;;;;;5069713;28;20460;-61
2022/04/24 05:37:29;;;;;;;11.48;7.53;;;;;;;;;;5056307;28;20071;-61
2022/04/24 05:39:55;;;;;;;10.55;7.03;;;;;;;;;;5061763;28;20390;-61
2022/04/24 05:42:21;;;;;;;9.40;7.10;;;;;;;;;;5061555;28;85104;-61
2022/04/24 05:44:47;;;;;;;11.93;7.40;;;;;;;;;;5075637;28;20051;-61
2022/04/24 05:47:13;;;;;;;9.70;6.75;;;;;;;;;;5062168;28;20090;-61
2022/04/24 05:49:39;;;;;;;10.02;7.45;;;;;;;;;;5062886;28;20120;-61
2022/04/24 05:52:05;;;;;;;9.98;6.20;;;;;;;;;;5075939;28;20049;-61
2022/04/24 05:54:31;;;;;;;13.15;7.45;;;;;;;;;;5060604;28;20051;-61
2022/04/24 05:56:57;;;;;;;17.63;7.03;;;;;;;;;;5067949;28;20037;-61
2022/04/24 05:59:23;;;;;;;9.57;6.10;;;;;;;;;;5068192;28;20135;-60
2022/04/24 06:01:49;;;;;;;11.02;6.15;;;;;;;;;;5063144;28;20115;-61
2022/04/24 06:04:15;;;;;;;10.40;6.82;;;;;;;;;;5066455;28;20043;-61
2022/04/24 06:06:41;;;;;;;12.32;6.68;;;;;;;;;;5066651;28;20041;-61
2022/04/24 06:09:07;;;;;;;9.23;6.53;;;;;;;;;;5058915;28;20386;-61
2022/04/24 06:11:33;;;;;;;13.27;7.60;;;;;;;;;;5059525;28;20037;-60
2022/04/24 06:13:59;;;;;;;13.23;6.80;;;;;;;;;;5062459;28;20044;-61
2022/04/24 06:16:25;;;;;;;12.27;7.15;;;;;;;;;;5064087;28;20036;-61
2022/04/24 06:18:51;;;;;;;10.23;7.20;;;;;;;;;;5063377;28;20037;-61
2022/04/24 06:21:17;;;;;;;11.00;7.82;;;;;;;;;;5064666;28;20089;-61
2022/04/24 06:23:43;;;;;;;10.57;6.65;;;;;;;;;;5062395;28;20055;-61
2022/04/24 06:26:09;;;;;;;12.50;6.80;;;;;;;;;;5057028;28;20500;-61
2022/04/24 06:28:35;;;;;;;11.55;7.07;;;;;;;;;;5067961;28;20055;-61
2022/04/24 06:31:01;;;;;;;13.30;6.75;;;;;;;;;;5064597;28;20123;-61
2022/04/24 06:33:27;;;;;;;9.90;7.53;;;;;;;;;;5067481;28;20402;-61
2022/04/24 06:35:53;;;;;;;9.23;6.03;;;;;;;;;;5059494;28;20056;-61
2022/04/24 06:38:22;;;;;;;10.27;6.22;;;;;;;;;;5059826;28;20131;-61
2022/04/24 06:40:48;;;;;;;8.90;6.43;;;;;;;;;;5061267;28;20032;-61
2022/04/24 06:43:13;;;;;;;10.52;6.65;;;;;;;;;;5092539;22;20081;-60
2022/04/24 06:45:40;;;;;;;9.35;6.18;;;;;;;;;;5103548;28;20036;-60
2022/04/24 06:48:09;;;;;;;12.32;7.60;;;;;;;;;;5105976;28;20318;-60
2022/04/24 06:50:37;;;;;;;11.70;7.00;;;;;;;;;;5106804;28;20036;-61
2022/04/24 06:53:06;;;;;;;11.50;6.07;;;;;;;;;;5105762;28;20043;-60
2022/04/24 06:55:33;;;;;;;9.40;6.25;;;;;;;;;;5105428;28;20488;-60
2022/04/24 06:57:59;;;;;;;9.05;6.78;;;;;;;;;;5106459;28;20162;-60
2022/04/24 07:00:26;;;;;;;13.88;7.22;;;;;;;;;;5102705;28;20040;-60
2022/04/24 07:02:52;;;;;;;9.07;7.05;;;;;;;;;;5102565;28;20036;-60
2022/04/24 07:05:20;;;;;;;10.40;6.30;;;;;;;;;;5108728;28;20397;-60
2022/04/24 07:07:46;;;;;;;9.07;6.07;;;;;;;;;;5101561;28;20073;-60
2022/04/24 07:10:12;;;;;;;9.18;6.07;;;;;;;;;;5105992;28;20035;-60
2022/04/24 07:12:48;;;;;;;11.18;6.50;;;;;;;;;;5112666;28;20063;-60
2022/04/24 07:15:14;;;;;;;10.25;6.28;;;;;;;;;;5113614;28;20040;-61
2022/04/24 07:17:41;;;;;;;9.50;6.43;;;;;;;;;;5105355;28;20043;-61
2022/04/24 07:20:08;;;;;;;11.15;6.30;;;;;;;;;;5113290;28;20036;-61
2022/04/24 07:22:43;;;;;;;12.10;6.93;;;;;;;;;;5109323;28;20573;-61
2022/04/24 07:25:10;;;;;;;11.93;6.35;;;;;;;;;;5112161;28;20047;-60
2022/04/24 07:27:36;;;;;;;9.85;6.45;;;;;;;;;;5112138;28;20312;-60
2022/04/24 07:30:02;;;;;;;10.70;6.60;;;;;;;;;;5096853;28;20112;-61
2022/04/24 07:32:28;;;;;;;9.55;6.03;;;;;;;;;;5111583;28;20035;-60
2022/04/24 07:34:54;;;;;;;10.13;6.65;;;;;;;;;;5110643;28;20040;-61
2022/04/24 07:37:19;;;;;;;10.52;5.30;;;;;;;;;;5113564;28;20724;-61
2022/04/24 07:39:45;;;;;;;8.65;5.95;;;;;;;;;;5107830;28;20036;-60
2022/04/24 07:42:11;;;;;;;11.02;6.60;;;;;;;;;;5110639;28;20031;-61
2022/04/24 07:44:37;;;;;;;8.40;5.75;;;;;;;;;;5113651;28;20031;-61
2022/04/24 07:47:03;;;;;;;7.85;4.72;;;;;;;;;;5109460;28;20055;-60
2022/04/24 07:49:29;;;;;;;10.10;5.57;;;;;;;;;;5103823;28;20105;-61
2022/04/24 07:51:55;;;;;;;8.85;5.10;;;;;;;;;;5102085;28;20039;-61
2022/04/24 07:54:21;;;;;;;8.32;5.05;;;;;;;;;;5112059;28;20043;-61
2022/04/24 07:56:47;;;;;;;7.68;5.35;;;;;;;;;;5111393;28;20036;-61
2022/04/24 07:59:13;;;;;;;9.38;5.40;;;;;;;;;;5109698;28;20043;-61
2022/04/24 08:01:39;;;;;;;6.90;4.80;;;;;;;;;;5110522;28;20032;-61
2022/04/24 08:04:06;;;;;;;10.15;5.68;;;;;;;;;;5112315;28;20043;-61
2022/04/24 08:06:32;;;;;;;7.45;4.93;;;;;;;;;;5111340;28;20043;-61
2022/04/24 08:08:57;;;;;;;7.95;4.82;;;;;;;;;;5114277;28;20149;-61
2022/04/24 08:11:23;;;;;;;9.85;5.78;;;;;;;;;;5106633;28;20032;-62
2022/04/24 08:13:49;;;;;;;7.32;4.95;;;;;;;;;;5112056;28;20569;-60
2022/04/24 08:16:15;;;;;;;8.95;5.43;;;;;;;;;;5105637;28;20144;-61
2022/04/24 08:18:41;;;;;;;10.20;5.15;;;;;;;;;;5107541;28;20065;-61
2022/04/24 08:21:07;;;;;;;6.70;4.53;;;;;;;;;;5108056;28;20396;-61
2022/04/24 08:23:35;;;;;;;12.75;4.25;;;;;;;;;;5112994;28;20028;-62
2022/04/24 08:26:01;;;;;;;6.22;3.90;;;;;;;;;;5103601;28;20035;-61
2022/04/24 08:28:27;;;;;;;5.93;3.65;;;;;;;;;;5109767;28;20070;-62
2022/04/24 08:30:53;;;;;;;5.47;3.50;;;;;;;;;;5111356;28;20420;-61
2022/04/24 08:33:19;;;;;;;8.70;4.43;;;;;;;;;;5109342;28;20074;-61
2022/04/24 08:35:46;;;;;;;6.57;4.45;;;;;;;;;;5109660;28;20067;-62
2022/04/24 08:38:12;;;;;;;6.00;3.78;;;;;;;;;;5100211;28;20052;-62
2022/04/24 08:40:38;;;;;;;7.30;3.88;;;;;;;;;;5111895;28;20032;-62
2022/04/24 08:43:04;;;;;;;5.85;3.67;;;;;;;;;;5108631;28;20054;-62
2022/04/24 08:45:31;;;;;;;10.60;4.25;;;;;;;;;;5099893;28;20036;-61
2022/04/24 08:47:58;;;;;;;8.70;3.95;;;;;;;;;;5102729;28;20043;-61
2022/04/24 08:50:31;;;;;;;6.10;4.20;;;;;;;;;;5106658;28;20148;-62
2022/04/24 08:52:57;;;;;;;7.63;3.30;;;;;;;;;;5102873;28;20050;-62
2022/04/24 08:55:25;;;;;;;6.05;3.83;;;;;;;;;;5105231;27;20161;-62
2022/04/24 08:57:51;;;;;;;4.80;3.08;;;;;;;;;;5103312;28;20067;-62
2022/04/24 09:00:17;;;;;;;6.20;3.70;;;;;;;;;;5108208;28;20498;-62
2022/04/24 09:02:43;;;;;;;6.43;3.28;;;;;;;;;;5106655;28;20121;-61
2022/04/24 09:05:09;;;;;;;5.70;3.28;;;;;;;;;;5111575;28;20036;-61
2022/04/24 09:07:36;;;;;;;4.63;2.65;;;;;;;;;;5105737;28;20601;-62
2022/04/24 09:10:04;;;;;;;4.63;2.72;;;;;;;;;;5109843;28;20118;-62
2022/04/24 09:12:30;;;;;;;3.88;2.80;;;;;;;;;;5098831;28;20490;-61
2022/04/24 09:14:56;;;;;;;3.72;2.80;;;;;;;;;;5104984;28;20507;-62
2022/04/24 09:17:23;;;;;;;5.38;2.45;;;;;;;;;;5107792;28;20126;-61
2022/04/24 09:19:50;;;;;;;5.72;2.92;;;;;;;;;;5112777;28;20043;-61
2022/04/24 09:22:16;;;;;;;5.93;3.08;;;;;;;;;;5107741;28;20036;-61
2022/04/24 09:24:44;;;;;;;3.72;2.70;;;;;;;;;;5104062;28;20032;-62
2022/04/24 09:27:11;;;;;;;5.18;2.78;;;;;;;;;;5112028;28;20397;-61
2022/04/24 09:29:43;;;;;;;6.03;3.17;;;;;;;;;;5113301;28;20038;-61
2022/04/24 09:32:10;;;;;;;6.43;2.95;;;;;;;;;;5106175;28;20400;-62
2022/04/24 09:34:37;;;;;;;4.93;3.10;;;;;;;;;;5106595;28;20027;-62
2022/04/24 09:37:08;;;;;;;4.10;2.70;;;;;;;;;;5104799;27;20051;-62
2022/04/24 09:39:34;;;;;;;;;;;;;;;;;;5105687;28;20059;-62
2022/04/24 09:42:03;;;;;;;3.88;2.72;;;;;;;;;;5106510;28;19920;-62
2022/04/24 09:44:36;;;;;;;5.07;2.80;;;;;;;;;;5103467;28;20091;-62
2022/04/24 09:47:03;;;;;;;4.43;2.90;;;;;;;;;;5103653;28;20067;-62
2022/04/24 09:49:31;;;;;;;4.47;2.90;;;;;;;;;;5103000;28;20036;-61
2022/04/24 09:51:57;;;;;;;5.30;3.13;;;;;;;;;;5095319;28;20044;-61
2022/04/24 09:54:28;;;;;;;6.90;2.88;;;;;;;;;;5113221;27;20134;-62
2022/04/24 09:56:56;;;;;;;5.15;2.78;;;;;;;;;;5089194;28;20051;-62
2022/04/24 09:59:23;;;;;;;3.03;2.40;;;;;;;;;;5088570;28;20050;-62
2022/04/24 10:01:49;;;;;;;4.28;2.30;;;;;;;;;;5089194;28;20072;-62
2022/04/24 10:04:16;;;;;;;3.90;2.20;;;;;;;;;;5078529;28;20035;-62
2022/04/24 10:06:42;;;;;;;3.38;2.45;;;;;;;;;;5087656;28;20127;-62
2022/04/24 10:09:09;;;;;;;3.78;2.58;;;;;;;;;;5086509;28;20044;-62
2022/04/24 10:11:35;;;;;;;5.93;2.83;;;;;;;;;;5089149;28;20036;-62
2022/04/24 10:14:07;;;;;;;5.35;2.75;;;;;;;;;;5078014;28;20043;-62
2022/04/24 10:16:37;;;;;;;6.47;2.75;;;;;;;;;;5081357;28;20115;-62
2022/04/24 10:19:15;;;;;;;4.10;2.55;;;;;;;;;;5087823;28;20518;-62
2022/04/24 10:22:00;;;;;;;4.88;3.25;;;;;;;;;;5088986;28;20128;-62
2022/04/24 10:24:37;;;;;;;6.78;2.97;;;;;;;;;;5078607;28;20140;-62
2022/04/24 10:27:03;;;;;;;4.07;2.90;;;;;;;;;;5088265;28;20036;-62
2022/04/24 10:29:29;;;;;;;5.25;3.20;;;;;;;;;;5087725;28;20047;-61
2022/04/24 10:31:56;;;;;;;6.03;2.75;;;;;;;;;;5088839;28;20452;-61
2022/04/24 10:34:23;;;;;;;4.82;2.78;;;;;;;;;;5088062;28;20044;-61
2022/04/24 10:37:02;;;;;;;7.10;2.92;;;;;;;;;;5079097;28;20394;-62
2022/04/24 10:39:33;;;;;;;4.25;2.63;;;;;;;;;;5067577;28;20072;-61
2022/04/24 10:42:00;;;;;;;5.28;3.00;;;;;;;;;;5070518;28;20044;-62
2022/04/24 10:44:27;;;;;;;6.95;3.05;;;;;;;;;;5087612;28;20044;-62
2022/04/24 10:46:57;;;;;;;5.32;3.13;;;;;;;;;;5088518;28;20044;-62
2022/04/24 10:49:24;;;;;;;3.72;2.60;;;;;;;;;;5084038;28;20573;-61
2022/04/24 10:52:03;;;;;;;4.03;2.05;;;;;;;;;;5082408;28;20437;-61
2022/04/24 10:54:34;;;;;;;3.25;2.17;;;;;;;;;;5087544;28;20128;-61
2022/04/24 10:57:00;;;;;;;2.78;2.15;;;;;;;;;;5088304;28;20036;-61
2022/04/24 10:59:26;;;;;;;2.97;2.42;;;;;;;;;;5087274;28;20036;-61
2022/04/24 11:01:54;;;;;;;3.08;2.47;;;;;;;;;;5088100;28;20044;-62
2022/04/24 11:04:20;;;;;;;4.85;2.50;;;;;;;;;;5078620;28;20087;-62
2022/04/24 11:06:57;;;;;;;4.25;2.50;;;;;;;;;;5061581;28;20041;-61
2022/04/24 11:09:24;;;;;;;3.20;2.05;;;;;;;;;;5073044;28;20120;-62
2022/04/24 11:11:52;;;;;;;4.35;2.53;;;;;;;;;;5073337;28;20048;-61
2022/04/24 11:14:19;;;;;;;4.72;2.38;;;;;;;;;;5073996;28;20449;-61
2022/04/24 11:16:48;;;;;;;5.18;2.83;;;;;;;;;;5073942;28;20040;-61
2022/04/24 11:19:20;;;;;;;5.43;2.70;;;;;;;;;;5064349;28;20398;-61
2022/04/24 11:21:46;;;;;;;4.03;2.45;;;;;;;;;;5074050;28;20494;-61
2022/04/24 11:24:12;;;;;;;4.95;2.88;;;;;;;;;;5073812;28;20049;-62
2022/04/24 11:26:38;;;;;;;4.93;2.72;;;;;;;;;;5074083;28;20036;-61
2022/04/24 11:29:10;;;;;;;4.00;2.60;;;;;;;;;;5073420;28;20190;-62
2022/04/24 11:31:46;;;;;;;4.15;2.63;;;;;;;;;;5074080;28;20040;-61
2022/04/24 11:34:12;;;;;;;5.68;2.50;;;;;;;;;;5063559;28;20052;-62
2022/04/24 11:36:38;;;;;;;6.40;2.65;;;;;;;;;;5074139;28;20044;-61
2022/04/24 11:39:07;;;;;;;4.15;2.70;;;;;;;;;;5073412;28;20142;-61
2022/04/24 11:41:33;;;;;;;5.88;2.95;;;;;;;;;;5073581;28;20170;-62
2022/04/24 11:44:01;;;;;;;6.40;3.20;;;;;;;;;;5073202;28;20036;-61
2022/04/24 11:52:10;;;;;;;8.43;2.90;;;;;;;;;;5061151;28;20040;-62
2022/04/24 11:54:36;;;;;;;4.63;2.95;;;;;;;;;;5073346;28;20037;-61
2022/04/24 11:57:02;;;;;;;4.78;2.60;;;;;;;;;;5073445;28;20545;-61
2022/04/24 11:59:28;;;;;;;5.65;3.17;;;;;;;;;;5072691;28;20115;-61
2022/04/24 12:01:59;;;;;;;5.53;2.75;;;;;;;;;;5072507;28;20135;-62
2022/04/24 12:04:33;;;;;;;5.88;2.83;;;;;;;;;;5063895;28;20040;-61
2022/04/24 12:07:04;;;;;;;2.97;2.40;;;;;;;;;;5072914;28;20242;-61
2022/04/24 12:09:30;;;;;;;5.40;2.80;;;;;;;;;;5072531;28;20047;-61
2022/04/24 12:12:03;;;;;;;4.70;2.90;;;;;;;;;;5073383;28;20068;-61
2022/04/24 12:14:29;;;;;;;4.18;2.47;;;;;;;;;;5070696;28;20052;-62
2022/04/24 12:17:01;;;;;;;4.95;2.53;;;;;;;;;;5068215;28;20035;-61
2022/04/24 12:19:27;;;;;;;4.15;2.85;;;;;;;;;;5071913;28;20044;-62
2022/04/24 12:21:54;;;;;;;5.72;2.40;;;;;;;;;;5072789;28;20041;-61
2022/04/24 12:24:21;;;;;;;4.65;2.60;;;;;;;;;;5072490;28;20055;-61
2022/04/24 12:26:51;;;;;;;3.55;2.40;;;;;;;;;;5073083;28;20044;-61
2022/04/24 12:29:17;;;;;;;4.40;2.70;;;;;;;;;;5072645;28;20459;-61
2022/04/24 12:31:44;;;;;;;4.50;2.63;;;;;;;;;;5066352;28;20047;-61
2022/04/24 12:34:10;;;;;;;4.53;2.40;;;;;;;;;;5069558;28;20119;-61
2022/04/24 12:36:36;;;;;;;6.30;2.72;;;;;;;;;;5072420;28;20078;-62
2022/04/24 12:39:06;;;;;;;2.83;2.20;;;;;;;;;;5070820;28;20040;-61
2022/04/24 12:41:34;;;;;;;4.70;2.47;;;;;;;;;;5072457;28;20072;-61
2022/04/24 12:44:01;;;;;;;2.92;2.10;;;;;;;;;;5076223;22;20124;-63
2022/04/24 12:46:27;;;;;;;4.70;2.60;;;;;;;;;;5048223;28;20037;-63
2022/04/24 12:48:55;;;;;;;3.33;2.17;;;;;;;;;;5046945;28;20041;-63
2022/04/24 12:51:23;;;;;;;4.03;2.55;;;;;;;;;;5052314;28;20045;-63
2022/04/24 12:53:50;;;;;;;5.40;2.15;;;;;;;;;;5052514;28;20045;-63
2022/04/24 12:56:16;;;;;;;3.03;2.10;;;;;;;;;;5050509;28;20044;-63
2022/04/24 12:58:42;;;;;;;4.53;2.42;;;;;;;;;;5052387;28;20041;-63
2022/04/24 13:01:11;;;;;;;5.03;2.28;;;;;;;;;;5049801;28;20040;-63
2022/04/24 13:03:39;;;;;;;3.85;2.67;;;;;;;;;;5051978;28;20514;-63
2022/04/24 13:06:05;;;;;;;3.50;2.33;;;;;;;;;;5051955;28;20098;-63
2022/04/24 13:08:31;;;;;;;4.32;2.30;;;;;;;;;;5050740;28;20049;-64
2022/04/24 13:10:57;;;;;;;3.95;2.58;;;;;;;;;;5051677;28;20395;-63
2022/04/24 13:13:23;;;;;;;3.95;2.28;;;;;;;;;;5051588;28;20048;-63
2022/04/24 13:18:36;;;;;;;3.10;2.25;;;;;;;;;;5010743;28;20385;-63
2022/04/24 13:21:02;;;;;;;4.28;2.72;;;;;;;;;;5030913;28;20050;-63
2022/04/24 13:23:28;;;;;;;4.25;2.63;;;;;;;;;;5031726;28;20118;-63
2022/04/24 13:25:54;;;;;;;5.90;2.70;;;;;;;;;;5030916;28;20129;-63
2022/04/24 13:28:24;;;;;;;3.60;2.15;;;;;;;;;;5030234;28;20053;-63
2022/04/24 13:30:51;;;;;;;3.92;2.15;;;;;;;;;;5039890;28;20486;-63
2022/04/24 13:33:17;;;;;;;2.55;2.08;;;;;;;;;;5051732;28;20079;-63
2022/04/24 13:35:44;;;;;;;5.45;2.25;;;;;;;;;;5051946;28;20069;-63
2022/04/24 13:38:19;;;;;;;4.85;2.45;;;;;;;;;;5051138;28;20091;-63
2022/04/24 13:40:49;;;;;;;6.38;2.38;;;;;;;;;;5051385;28;20128;-63
2022/04/24 13:43:15;;;;;;;2.72;2.00;;;;;;;;;;5048146;28;20045;-64
2022/04/24 13:45:42;;;;;;;5.10;2.45;;;;;;;;;;5045164;28;20036;-64
2022/04/24 13:48:08;;;;;;;3.45;2.33;;;;;;;;;;5050227;28;20117;-63
2022/04/24 13:50:35;;;;;;;5.00;2.38;;;;;;;;;;5051322;28;20083;-63
2022/04/24 13:53:02;;;;;;;3.92;2.78;;;;;;;;;;5050403;28;20410;-63
2022/04/24 13:55:28;;;;;;;5.20;2.75;;;;;;;;;;5050987;28;20116;-63
2022/04/24 13:57:54;;;;;;;4.40;2.35;;;;;;;;;;5050054;28;20033;-64
2022/04/24 14:00:21;;;;;;;6.85;3.15;;;;;;;;;;5051323;28;20088;-64
2022/04/24 14:02:49;;;;;;;3.17;2.72;;;;;;;;;;5050836;28;20066;-63
2022/04/24 14:05:15;;;;;;;4.43;2.65;;;;;;;;;;5051406;28;20095;-63
2022/04/24 14:07:41;;;;;;;5.85;2.60;;;;;;;;;;5051138;28;20186;-63
2022/04/24 14:10:08;;;;;;;6.30;2.88;;;;;;;;;;5050756;28;20189;-63
2022/04/24 14:12:35;;;;;;;5.05;3.25;;;;;;;;;;5045354;28;20041;-63
2022/04/24 14:15:01;;;;;;;4.88;2.60;;;;;;;;;;5047734;28;20566;-63
2022/04/24 14:17:27;;;;;;;6.35;3.17;;;;;;;;;;5050931;28;20044;-63
2022/04/24 14:19:53;;;;;;;4.40;2.70;;;;;;;;;;5050804;28;20033;-63
2022/04/24 14:22:19;;;;;;;5.50;2.75;;;;;;;;;;5050974;28;20041;-63
2022/04/24 14:24:45;;;;;;;6.15;2.80;;;;;;;;;;5051115;28;20499;-64
2022/04/24 14:27:13;;;;;;;3.80;2.88;;;;;;;;;;5041669;28;20095;-63
2022/04/24 14:29:40;;;;;;;4.38;2.63;;;;;;;;;;5050845;28;20083;-63
2022/04/24 14:32:06;;;;;;;3.53;2.50;;;;;;;;;;5050796;28;20076;-63
2022/04/24 14:34:34;;;;;;;6.32;2.95;;;;;;;;;;5051536;28;20041;-63
2022/04/24 14:37:00;;;;;;;4.68;2.95;;;;;;;;;;5050668;28;20120;-63
2022/04/24 14:39:27;;;;;;;4.00;2.88;;;;;;;;;;5051800;28;20036;-63
2022/04/24 14:41:57;;;;;;;4.60;3.03;;;;;;;;;;5047741;28;20047;-63
2022/04/24 14:44:23;;;;;;;4.07;3.13;;;;;;;;;;5054871;28;20080;-63